Time;durP1;ratioP1;P1;durP2;ratioP2;P2;SDS_P1;SDS_P2;PMS_P1;PMS_P2;Temp;Humidity;BMP_temperature;BMP_pressure;BME280_temperature;BME280_humidity;BME280_pressure;Samples;Min_cycle;Max_cycle;Signal;HPM_P1;HPM_P2
2023/04/17 00:00:29;;;;;;;;;;;10.70;96.20;;;;;;5109392;28;19907;-69
2023/04/17 00:02:54;;;;;;;;;;;10.70;96.20;;;;;;5109311;28;19935;-69
2023/04/17 00:05:21;;;;;;;;;;;10.70;96.30;;;;;;5107923;28;19919;-69
2023/04/17 00:07:48;;;;;;;;;;;10.70;96.30;;;;;;5109539;28;19919;-69
2023/04/17 00:10:14;;;;;;;;;;;10.60;96.30;;;;;;5107862;28;19912;-69
2023/04/17 00:12:39;;;;;;;;;;;10.70;96.40;;;;;;5108989;28;19911;-69
2023/04/17 00:15:06;;;;;;;;;;;10.60;96.30;;;;;;5108878;28;19995;-69
2023/04/17 00:17:31;;;;;;;;;;;10.60;96.30;;;;;;5109193;28;19912;-69
2023/04/17 00:19:57;;;;;;;;;;;10.60;96.30;;;;;;5109108;28;20391;-69
2023/04/17 00:22:22;;;;;;;;;;;10.60;96.40;;;;;;5108889;28;20023;-69
2023/04/17 00:24:48;;;;;;;;;;;10.60;96.40;;;;;;5108818;28;19919;-69
2023/04/17 00:27:13;;;;;;;;;;;10.60;96.30;;;;;;5108841;28;19912;-69
2023/04/17 00:29:39;;;;;;;;;;;10.60;96.40;;;;;;5108700;28;19912;-69
2023/04/17 00:32:04;;;;;;;;;;;10.60;96.30;;;;;;5108484;27;20002;-69
2023/04/17 00:34:30;;;;;;;;;;;10.60;96.40;;;;;;5109073;28;19958;-69
2023/04/17 00:36:56;;;;;;;;;;;10.60;96.40;;;;;;5108980;28;19991;-69
2023/04/17 00:39:21;;;;;;;;;;;10.60;96.40;;;;;;5108540;28;19958;-69
2023/04/17 00:41:47;;;;;;;;;;;10.60;96.50;;;;;;5108397;28;20469;-70
2023/04/17 00:44:12;;;;;;;;;;;10.60;96.40;;;;;;5108277;28;19907;-69
2023/04/17 00:46:38;;;;;;;;;;;10.60;96.40;;;;;;5106851;28;19919;-69
2023/04/17 00:49:03;;;;;;;;;;;10.60;96.40;;;;;;5109017;28;20552;-69
2023/04/17 00:51:30;;;;;;;;;;;10.50;96.40;;;;;;5108988;28;19911;-69
2023/04/17 00:53:56;;;;;;;;;;;10.60;96.40;;;;;;5106706;28;20002;-69
2023/04/17 00:56:22;;;;;;;;;;;10.50;96.40;;;;;;5109020;28;20279;-69
2023/04/17 00:58:47;;;;;;;;;;;10.50;96.50;;;;;;5108560;28;19920;-69
2023/04/17 01:01:13;;;;;;;;;;;10.50;96.50;;;;;;5108300;28;19919;-70
2023/04/17 01:03:39;;;;;;;;;;;10.50;96.60;;;;;;5107961;28;19908;-70
2023/04/17 01:06:05;;;;;;;;;;;10.50;96.50;;;;;;5092659;28;19919;-69
2023/04/17 01:08:41;;;;;;;;;;;10.50;96.50;;;;;;5092340;28;19919;-70
2023/04/17 01:11:06;;;;;;;;;;;10.50;96.50;;;;;;5092749;28;19962;-69
2023/04/17 01:13:32;;;;;;;;;;;10.50;96.50;;;;;;5091737;28;19908;-69
2023/04/17 01:15:57;;;;;;;;;;;10.40;96.60;;;;;;5112188;28;19918;-69
2023/04/17 01:18:23;;;;;;;;;;;10.50;96.60;;;;;;5111114;28;19937;-69
2023/04/17 01:20:48;;;;;;;;;;;10.40;96.50;;;;;;5112570;28;19920;-69
2023/04/17 01:23:14;;;;;;;;;;;10.50;97.10;;;;;;5110625;28;20503;-69
2023/04/17 01:25:40;;;;;;;;;;;10.40;96.60;;;;;;5112585;28;19916;-69
2023/04/17 01:28:05;;;;;;;;;;;10.40;96.60;;;;;;5112466;28;20311;-70
2023/04/17 01:30:31;;;;;;;;;;;10.40;96.60;;;;;;5112512;28;19976;-69
2023/04/17 01:32:56;;;;;;;;;;;10.40;96.70;;;;;;5101166;28;20372;-69
2023/04/17 01:35:22;;;;;;;;;;;10.40;96.90;;;;;;5092132;28;19912;-69
2023/04/17 01:37:47;;;;;;;;;;;10.40;96.70;;;;;;5091833;28;19912;-69
2023/04/17 01:40:13;;;;;;;;;;;10.40;96.80;;;;;;5092569;28;19919;-69
2023/04/17 01:42:38;;;;;;;;;;;10.40;96.80;;;;;;5111463;28;19915;-69
2023/04/17 01:45:04;;;;;;;;;;;10.30;96.80;;;;;;5111865;28;19908;-70
2023/04/17 01:47:30;;;;;;;;;;;10.30;96.80;;;;;;5111610;28;19911;-69
2023/04/17 01:49:55;;;;;;;;;;;10.30;96.90;;;;;;5112270;28;19935;-69
2023/04/17 01:52:21;;;;;;;;;;;10.30;97.00;;;;;;5103531;28;20261;-69
2023/04/17 01:54:46;;;;;;;;;;;10.30;97.00;;;;;;5111549;28;19911;-69
2023/04/17 01:57:12;;;;;;;;;;;10.30;96.70;;;;;;5112162;28;20363;-69
2023/04/17 01:59:37;;;;;;;;;;;10.30;96.90;;;;;;5111808;28;20653;-69
2023/04/17 02:02:03;;;;;;;;;;;10.30;96.80;;;;;;5111735;28;20007;-69
2023/04/17 02:04:28;;;;;;;;;;;10.30;97.00;;;;;;5111833;28;19956;-69
2023/04/17 02:06:54;;;;;;;;;;;10.30;96.90;;;;;;5111753;28;19965;-69
2023/04/17 02:09:19;;;;;;;;;;;10.30;96.90;;;;;;5111534;28;20376;-69
2023/04/17 02:11:45;;;;;;;;;;;10.30;97.00;;;;;;5110159;28;19918;-70
2023/04/17 02:14:10;;;;;;;;;;;10.20;97.00;;;;;;5110108;28;19947;-69
2023/04/17 02:16:36;;;;;;;;;;;10.20;97.00;;;;;;5111539;28;19915;-69
2023/04/17 02:19:02;;;;;;;;;;;10.20;97.10;;;;;;5111057;28;20075;-70
2023/04/17 02:21:27;;;;;;;;;;;10.20;97.00;;;;;;5111669;28;20640;-69
2023/04/17 02:23:53;;;;;;;;;;;10.20;97.00;;;;;;5111234;28;20030;-69
2023/04/17 02:26:18;;;;;;;;;;;10.20;97.20;;;;;;5111453;28;20611;-69
2023/04/17 02:28:44;;;;;;;;;;;10.20;97.20;;;;;;5111321;28;19912;-69
2023/04/17 02:31:10;;;;;;;;;;;10.20;97.20;;;;;;5111657;28;20481;-69
2023/04/17 02:33:35;;;;;;;;;;;10.20;97.30;;;;;;5109535;28;19919;-69
2023/04/17 02:36:02;;;;;;;;;;;10.10;97.40;;;;;;5111253;28;20454;-69
2023/04/17 02:38:30;;;;;;;;;;;10.10;97.40;;;;;;5109466;28;20056;-69
2023/04/17 02:40:56;;;;;;;;;;;10.10;97.40;;;;;;5111057;28;20590;-69
2023/04/17 02:43:22;;;;;;;;;;;10.10;97.50;;;;;;5110555;28;19908;-69
2023/04/17 02:45:47;;;;;;;;;;;10.10;97.50;;;;;;5111047;28;20085;-69
2023/04/17 02:48:13;;;;;;;;;;;10.10;97.60;;;;;;5110553;28;20265;-69
2023/04/17 02:50:38;;;;;;;;;;;10.10;97.50;;;;;;5111150;28;19919;-69
2023/04/17 02:53:04;;;;;;;;;;;10.10;97.60;;;;;;5109928;28;19908;-69
2023/04/17 02:55:29;;;;;;;;;;;10.00;97.50;;;;;;5108871;28;20006;-69
2023/04/17 02:57:55;;;;;;;;;;;10.00;97.60;;;;;;5109382;28;19912;-69
2023/04/17 03:00:21;;;;;;;;;;;10.00;97.50;;;;;;5109221;28;19916;-69
2023/04/17 03:02:47;;;;;;;;;;;10.00;97.60;;;;;;5110468;28;19916;-69
2023/04/17 03:05:13;;;;;;;;;;;10.00;97.60;;;;;;5109428;28;20416;-69
2023/04/17 03:07:39;;;;;;;;;;;10.00;97.60;;;;;;5098725;28;19908;-69
2023/04/17 03:10:05;;;;;;;;;;;10.00;97.70;;;;;;5090049;28;19918;-69
2023/04/17 03:12:31;;;;;;;;;;;10.00;97.60;;;;;;5089906;28;19908;-69
2023/04/17 03:14:56;;;;;;;;;;;9.90;97.60;;;;;;5101322;28;20424;-69
2023/04/17 03:17:22;;;;;;;;;;;9.90;97.70;;;;;;5110487;28;20443;-69
2023/04/17 03:19:47;;;;;;;;;;;10.00;97.70;;;;;;5110124;28;20064;-69
2023/04/17 03:22:13;;;;;;;;;;;9.90;97.70;;;;;;5109587;28;19923;-69
2023/04/17 03:24:40;;;;;;;;;;;9.90;97.70;;;;;;5109875;28;20276;-69
2023/04/17 03:27:05;;;;;;;;;;;9.90;97.70;;;;;;5110195;28;20368;-69
2023/04/17 03:29:30;;;;;;;;;;;9.90;97.70;;;;;;5110339;28;19919;-70
2023/04/17 03:31:56;;;;;;;;;;;9.90;97.70;;;;;;5109962;28;19908;-69
2023/04/17 03:34:22;;;;;;;;;;;9.90;97.70;;;;;;5110131;28;20372;-69
2023/04/17 03:36:47;;;;;;;;;;;9.90;97.60;;;;;;5109984;28;19912;-69
2023/04/17 03:39:13;;;;;;;;;;;9.90;97.70;;;;;;5109382;28;19938;-69
2023/04/17 03:41:38;;;;;;;;;;;9.90;97.70;;;;;;5109491;27;19965;-69
2023/04/17 03:44:04;;;;;;;;;;;9.90;97.70;;;;;;5109206;28;19912;-69
2023/04/17 03:46:30;;;;;;;;;;;9.80;97.60;;;;;;5109482;28;20382;-69
2023/04/17 03:48:55;;;;;;;;;;;9.90;97.70;;;;;;5108465;28;19912;-69
2023/04/17 03:51:21;;;;;;;;;;;9.80;97.70;;;;;;5109221;28;19918;-69
2023/04/17 03:53:47;;;;;;;;;;;9.80;97.60;;;;;;5108902;28;19919;-69
2023/04/17 03:56:12;;;;;;;;;;;9.80;97.70;;;;;;5102965;28;19936;-69
2023/04/17 03:58:38;;;;;;;;;;;9.80;97.50;;;;;;5100030;27;19920;-69
2023/04/17 04:01:03;;;;;;;;;;;9.80;97.70;;;;;;5102649;27;20434;-69
2023/04/17 04:03:29;;;;;;;;;;;9.80;97.80;;;;;;5107785;28;19921;-69
2023/04/17 04:05:54;;;;;;;;;;;9.70;97.70;;;;;;5107974;28;19912;-69
2023/04/17 04:08:20;;;;;;;;;;;9.80;97.70;;;;;;5109199;28;19915;-69
2023/04/17 04:10:45;;;;;;;;;;;9.80;97.70;;;;;;5108953;28;19912;-69
2023/04/17 04:13:11;;;;;;;;;;;9.70;97.70;;;;;;5108743;28;19907;-69
2023/04/17 04:15:37;;;;;;;;;;;9.80;97.80;;;;;;5108891;28;19916;-69
2023/04/17 04:18:02;;;;;;;;;;;9.70;97.70;;;;;;5095474;28;19989;-69
2023/04/17 04:20:28;;;;;;;;;;;9.70;97.70;;;;;;5088627;28;19955;-69
2023/04/17 04:22:56;;;;;;;;;;;9.70;97.60;;;;;;5103865;28;19915;-69
2023/04/17 04:25:22;;;;;;;;;;;9.70;97.70;;;;;;5107229;28;19997;-69
2023/04/17 04:27:48;;;;;;;;;;;9.70;97.60;;;;;;5108413;28;20008;-69
2023/04/17 04:30:18;;;;;;;;;;;9.70;97.70;;;;;;5108755;28;19911;-69
2023/04/17 04:32:47;;;;;;;;;;;9.70;97.70;;;;;;5108546;28;19994;-69
2023/04/17 04:35:13;;;;;;;;;;;9.70;97.70;;;;;;5108063;28;19916;-69
2023/04/17 04:37:41;;;;;;;;;;;9.70;97.60;;;;;;5108886;28;19911;-69
2023/04/17 04:40:11;;;;;;;;;;;9.70;97.70;;;;;;5108293;28;19922;-69
2023/04/17 04:42:38;;;;;;;;;;;9.70;97.70;;;;;;5107139;28;19911;-69
2023/04/17 04:45:04;;;;;;;;;;;9.70;97.80;;;;;;5108455;28;19912;-69
2023/04/17 04:47:30;;;;;;;;;;;9.70;97.60;;;;;;5108495;28;20660;-69
2023/04/17 04:49:55;;;;;;;;;;;9.70;97.70;;;;;;5108056;28;19939;-69
2023/04/17 04:52:21;;;;;;;;;;;9.60;97.70;;;;;;5107687;28;19912;-69
2023/04/17 04:54:46;;;;;;;;;;;9.60;97.70;;;;;;5108241;28;20249;-69
2023/04/17 04:57:12;;;;;;;;;;;9.60;97.50;;;;;;5108621;28;19908;-69
2023/04/17 04:59:40;;;;;;;;;;;9.70;97.60;;;;;;5106932;28;19923;-69
2023/04/17 05:02:06;;;;;;;;;;;9.60;97.60;;;;;;5108332;28;20508;-69
2023/04/17 05:04:31;;;;;;;;;;;9.60;97.60;;;;;;5108628;28;19919;-69
2023/04/17 05:06:57;;;;;;;;;;;9.60;97.60;;;;;;5108467;28;19961;-69
2023/04/17 05:09:22;;;;;;;;;;;9.60;97.60;;;;;;5107186;28;19943;-69
2023/04/17 05:11:48;;;;;;;;;;;9.70;97.50;;;;;;5098984;28;19939;-69
2023/04/17 05:14:13;;;;;;;;;;;9.60;97.50;;;;;;5093332;28;20532;-69
2023/04/17 05:16:40;;;;;;;;;;;9.60;97.40;;;;;;5108551;28;19918;-69
2023/04/17 05:19:05;;;;;;;;;;;9.60;97.30;;;;;;5108164;28;19920;-69
2023/04/17 05:21:31;;;;;;;;;;;9.60;97.40;;;;;;5108468;28;20307;-69
2023/04/17 05:23:56;;;;;;;;;;;9.60;97.40;;;;;;5107964;28;19908;-69
2023/04/17 05:26:22;;;;;;;;;;;9.60;97.40;;;;;;5108405;28;20452;-69
2023/04/17 05:28:47;;;;;;;;;;;9.70;97.40;;;;;;5107929;28;19912;-69
2023/04/17 05:31:13;;;;;;;;;;;9.60;97.40;;;;;;5108387;28;20421;-69
2023/04/17 05:33:40;;;;;;;;;;;9.60;97.40;;;;;;5107278;28;20073;-69
2023/04/17 05:36:06;;;;;;;;;;;9.60;97.50;;;;;;5108478;28;20392;-69
2023/04/17 05:38:32;;;;;;;;;;;9.70;97.30;;;;;;5106845;28;19923;-69
2023/04/17 05:40:57;;;;;;;;;;;9.60;97.20;;;;;;5108204;28;19908;-69
2023/04/17 05:43:23;;;;;;;;;;;9.60;97.20;;;;;;5107915;28;19912;-69
2023/04/17 05:45:48;;;;;;;;;;;9.60;97.20;;;;;;5107435;28;19951;-69
2023/04/17 05:48:14;;;;;;;;;;;9.60;97.10;;;;;;5111940;28;20019;-69
2023/04/17 05:50:39;;;;;;;;;;;9.60;97.20;;;;;;5111683;27;19916;-69
2023/04/17 05:53:05;;;;;;;;;;;9.70;97.30;;;;;;5111008;28;19911;-69
2023/04/17 05:55:31;;;;;;;;;;;9.70;97.30;;;;;;5110613;28;19912;-69
2023/04/17 05:57:56;;;;;;;;;;;9.70;97.30;;;;;;5111622;28;20314;-69
2023/04/17 06:00:22;;;;;;;;;;;9.60;97.20;;;;;;5111250;28;19993;-69
2023/04/17 06:02:47;;;;;;;;;;;9.70;97.30;;;;;;5111071;28;19907;-69
2023/04/17 06:05:13;;;;;;;;;;;9.70;97.20;;;;;;5111228;28;20265;-69
2023/04/17 06:07:39;;;;;;;;;;;9.70;97.20;;;;;;5111495;28;19912;-69
2023/04/17 06:10:05;;;;;;;;;;;9.70;97.30;;;;;;5111262;28;19919;-69
2023/04/17 06:12:31;;;;;;;;;;;9.70;97.30;;;;;;5111160;28;19982;-69
2023/04/17 06:14:56;;;;;;;;;;;9.70;97.20;;;;;;5111086;28;20003;-69
2023/04/17 06:17:22;;;;;;;;;;;9.70;97.20;;;;;;5111320;28;19918;-69
2023/04/17 06:19:47;;;;;;;;;;;9.70;97.30;;;;;;5111236;28;19920;-69
2023/04/17 06:22:13;;;;;;;;;;;9.70;97.30;;;;;;5111132;28;20360;-70
2023/04/17 06:24:38;;;;;;;;;;;9.70;97.30;;;;;;5111422;28;19912;-69
2023/04/17 06:27:04;;;;;;;;;;;9.70;97.30;;;;;;5110941;28;19965;-70
2023/04/17 06:29:29;;;;;;;;;;;9.70;97.30;;;;;;5111286;28;19920;-69
2023/04/17 06:31:55;;;;;;;;;;;9.80;97.20;;;;;;5111021;28;19912;-69
2023/04/17 06:34:20;;;;;;;;;;;9.80;97.20;;;;;;5111076;28;19912;-69
2023/04/17 06:36:46;;;;;;;;;;;9.80;97.10;;;;;;5111286;27;20272;-69
2023/04/17 06:39:12;;;;;;;;;;;9.80;97.30;;;;;;5111171;27;20413;-69
2023/04/17 06:41:37;;;;;;;;;;;9.80;97.30;;;;;;5111086;28;19919;-69
2023/04/17 06:44:03;;;;;;;;;;;9.80;97.20;;;;;;5110583;28;19911;-69
2023/04/17 06:46:28;;;;;;;;;;;9.80;97.20;;;;;;5111231;28;19957;-69
2023/04/17 06:48:56;;;;;;;;;;;9.90;97.20;;;;;;5111007;28;19918;-69
2023/04/17 06:51:24;;;;;;;;;;;9.90;97.30;;;;;;5110367;28;19965;-69
2023/04/17 06:53:49;;;;;;;;;;;9.90;97.20;;;;;;5102900;28;19912;-69
2023/04/17 06:56:15;;;;;;;;;;;9.90;97.20;;;;;;5110715;28;19912;-69
2023/04/17 06:58:43;;;;;;;;;;;10.00;97.30;;;;;;5109951;28;20368;-69
2023/04/17 07:01:11;;;;;;;;;;;9.90;97.30;;;;;;5109694;28;19912;-69
2023/04/17 07:03:37;;;;;;;;;;;10.00;97.30;;;;;;5110494;28;19943;-69
2023/04/17 07:06:03;;;;;;;;;;;10.00;97.30;;;;;;5110824;28;19947;-69
2023/04/17 07:08:29;;;;;;;;;;;10.00;97.20;;;;;;5110416;28;20708;-69
2023/04/17 07:10:54;;;;;;;;;;;10.10;97.20;;;;;;5110810;28;19919;-69
2023/04/17 07:13:20;;;;;;;;;;;10.10;97.10;;;;;;5110540;28;19911;-69
2023/04/17 07:15:55;;;;;;;;;;;10.10;97.20;;;;;;5110636;28;19953;-69
2023/04/17 07:18:21;;;;;;;;;;;10.10;97.20;;;;;;5109194;28;20693;-69
2023/04/17 07:20:47;;;;;;;;;;;10.10;97.20;;;;;;5108564;28;19923;-69
2023/04/17 07:23:12;;;;;;;;;;;10.10;97.30;;;;;;5108618;28;19915;-69
2023/04/17 07:25:38;;;;;;;;;;;10.10;97.20;;;;;;5110298;28;20661;-69
2023/04/17 07:28:03;;;;;;;;;;;10.20;97.20;;;;;;5110346;28;19922;-69
2023/04/17 07:30:29;;;;;;;;;;;10.20;97.20;;;;;;5110018;28;20455;-69
2023/04/17 07:32:55;;;;;;;;;;;10.20;97.10;;;;;;5110074;28;20318;-69
2023/04/17 07:35:21;;;;;;;;;;;10.20;97.20;;;;;;5108693;28;19916;-69
2023/04/17 07:37:46;;;;;;;;;;;10.20;97.20;;;;;;5110298;27;19934;-69
2023/04/17 07:40:13;;;;;;;;;;;10.20;97.10;;;;;;5109667;28;19919;-69
2023/04/17 07:42:38;;;;;;;;;;;10.20;97.10;;;;;;5109945;28;19911;-69
2023/04/17 07:45:04;;;;;;;;;;;10.30;97.10;;;;;;5109759;28;19919;-69
2023/04/17 07:47:30;;;;;;;;;;;10.40;97.10;;;;;;5110056;28;19915;-69
2023/04/17 07:49:56;;;;;;;;;;;10.40;97.00;;;;;;5109887;28;19914;-69
2023/04/17 07:52:21;;;;;;;;;;;10.40;96.90;;;;;;5108771;28;19972;-69
2023/04/17 07:54:47;;;;;;;;;;;10.50;96.90;;;;;;5109450;28;20337;-69
2023/04/17 07:57:13;;;;;;;;;;;10.40;96.90;;;;;;5109718;28;19918;-69
2023/04/17 07:59:39;;;;;;;;;;;10.50;96.80;;;;;;5109636;28;19922;-69
2023/04/17 08:02:05;;;;;;;;;;;10.50;96.80;;;;;;5108708;28;19912;-69
2023/04/17 08:04:31;;;;;;;;;;;10.50;96.70;;;;;;5109810;28;19981;-69
2023/04/17 08:06:57;;;;;;;;;;;10.60;96.70;;;;;;5109575;28;19904;-69
2023/04/17 08:09:23;;;;;;;;;;;10.60;96.80;;;;;;5109221;28;19912;-69
2023/04/17 08:11:48;;;;;;;;;;;10.60;96.80;;;;;;5109342;28;19972;-69
2023/04/17 08:14:15;;;;;;;;;;;10.60;96.80;;;;;;5108034;28;19943;-69
2023/04/17 08:16:40;;;;;;;;;;;10.60;96.80;;;;;;5109718;28;19990;-69
2023/04/17 08:19:06;;;;;;;;;;;10.60;96.80;;;;;;5109151;28;20002;-69
2023/04/17 08:21:31;;;;;;;;;;;10.70;96.90;;;;;;5109554;28;19912;-69
2023/04/17 08:23:57;;;;;;;;;;;10.60;96.80;;;;;;5108999;28;19915;-69
2023/04/17 08:26:22;;;;;;;;;;;10.70;96.80;;;;;;5109301;28;20352;-69
2023/04/17 08:28:48;;;;;;;;;;;10.70;96.70;;;;;;5108619;28;20014;-69
2023/04/17 08:31:13;;;;;;;;;;;10.80;96.80;;;;;;5109123;28;19959;-70
2023/04/17 08:33:39;;;;;;;;;;;10.80;96.60;;;;;;5109010;28;20010;-69
2023/04/17 08:36:04;;;;;;;;;;;10.80;96.50;;;;;;5109091;28;19911;-69
2023/04/17 08:38:30;;;;;;;;;;;10.90;96.60;;;;;;5108817;28;19916;-69
2023/04/17 08:41:01;;;;;;;;;;;10.90;96.50;;;;;;5108933;28;20426;-69
2023/04/17 08:43:27;;;;;;;;;;;11.00;96.40;;;;;;5108852;28;19937;-69
2023/04/17 08:45:54;;;;;;;;;;;11.10;96.40;;;;;;5108914;28;19990;-69
2023/04/17 08:48:20;;;;;;;;;;;11.20;96.40;;;;;;5109100;28;19915;-69
2023/04/17 08:50:49;;;;;;;;;;;11.30;96.10;;;;;;5109525;28;19915;-70
2023/04/17 08:53:18;;;;;;;;;;;11.30;96.00;;;;;;5107266;28;19918;-70
2023/04/17 08:55:44;;;;;;;;;;;11.40;95.90;;;;;;5100651;28;19912;-70
2023/04/17 08:58:11;;;;;;;;;;;11.40;95.90;;;;;;5108809;28;19912;-70
2023/04/17 09:00:38;;;;;;;;;;;11.50;95.70;;;;;;5108883;28;19996;-70
2023/04/17 09:03:06;;;;;;;;;;;11.50;95.60;;;;;;5108525;28;19965;-70
2023/04/17 09:05:32;;;;;;;;;;;11.60;95.60;;;;;;5106363;28;19912;-70
2023/04/17 09:08:10;;;;;;;;;;;11.70;95.60;;;;;;5108725;28;19926;-70
2023/04/17 09:10:36;;;;;;;;;;;11.70;95.50;;;;;;5108749;28;19923;-69
2023/04/17 09:13:02;;;;;;;;;;;11.70;95.80;;;;;;5108568;28;19922;-70
2023/04/17 09:15:28;;;;;;;;;;;11.90;95.30;;;;;;5108529;28;20291;-70
2023/04/17 09:17:54;;;;;;;;;;;11.90;95.20;;;;;;5108677;28;19912;-70
2023/04/17 09:20:19;;;;;;;;;;;12.00;95.30;;;;;;5108695;28;20576;-70
2023/04/17 09:22:46;;;;;;;;;;;12.00;95.20;;;;;;5111769;28;20392;-70
2023/04/17 09:25:18;;;;;;;;;;;12.10;95.00;;;;;;5112757;28;19912;-70
2023/04/17 09:27:44;;;;;;;;;;;12.10;95.00;;;;;;5112350;27;19911;-70
2023/04/17 09:30:10;;;;;;;;;;;12.20;94.80;;;;;;5111896;27;19919;-70
2023/04/17 09:32:36;;;;;;;;;;;12.20;94.70;;;;;;5111525;28;20068;-70
2023/04/17 09:35:02;;;;;;;;;;;12.40;94.70;;;;;;5111282;28;20802;-70
2023/04/17 09:37:47;;;;;;;;;;;12.40;94.50;;;;;;5112327;28;19911;-70
2023/04/17 09:40:13;;;;;;;;;;;12.40;94.50;;;;;;5112161;27;19930;-70
2023/04/17 09:42:52;;;;;;;;;;;12.60;94.30;;;;;;5111931;28;20318;-70
2023/04/17 09:45:18;;;;;;;;;;;12.50;94.40;;;;;;5112245;28;19991;-70
2023/04/17 09:47:45;;;;;;;;;;;12.60;94.40;;;;;;5110219;28;19998;-70
2023/04/17 09:50:12;;;;;;;;;;;12.60;94.30;;;;;;5112377;28;19938;-70
2023/04/17 09:52:38;;;;;;;;;;;12.60;94.20;;;;;;5111450;28;20376;-70
2023/04/17 09:55:05;;;;;;;;;;;12.60;94.20;;;;;;5111808;28;19912;-70
2023/04/17 09:57:31;;;;;;;;;;;12.60;94.20;;;;;;5109560;28;19952;-70
2023/04/17 10:00:00;;;;;;;;;;;12.60;94.20;;;;;;5111757;28;19943;-70
2023/04/17 10:02:25;;;;;;;;;;;12.70;94.00;;;;;;5110482;28;19919;-71
2023/04/17 10:04:51;;;;;;;;;;;12.80;94.10;;;;;;5111939;28;20288;-70
2023/04/17 10:07:17;;;;;;;;;;;12.80;94.10;;;;;;5110629;28;19919;-70
2023/04/17 10:09:46;;;;;;;;;;;12.90;93.90;;;;;;5110464;28;20060;-70
2023/04/17 10:12:15;;;;;;;;;;;13.00;93.80;;;;;;5111556;28;19919;-70
2023/04/17 10:14:43;;;;;;;;;;;13.10;93.70;;;;;;5111640;28;20006;-70
2023/04/17 10:17:22;;;;;;;;;;;13.10;93.60;;;;;;5111687;28;20023;-70
2023/04/17 10:19:48;;;;;;;;;;;13.10;93.60;;;;;;5110405;28;20292;-70
2023/04/17 10:22:19;;;;;;;;;;;13.20;93.60;;;;;;5111432;28;19919;-70
2023/04/17 10:24:47;;;;;;;;;;;13.20;93.50;;;;;;5111309;28;19912;-70
2023/04/17 10:27:25;;;;;;;;;;;13.30;93.50;;;;;;5111529;28;19991;-70
2023/04/17 10:29:54;;;;;;;;;;;13.30;93.60;;;;;;5111608;28;20760;-70
2023/04/17 10:32:20;;;;;;;;;;;13.30;93.50;;;;;;5110017;28;20671;-70
2023/04/17 10:34:46;;;;;;;;;;;13.40;93.60;;;;;;5111366;28;19923;-70
2023/04/17 10:37:14;;;;;;;;;;;13.50;93.40;;;;;;5111329;28;20338;-70
2023/04/17 10:40:06;;;;;;;;;;;13.60;93.40;;;;;;5111168;28;19912;-70
2023/04/17 10:42:31;;;;;;;;;;;13.60;93.50;;;;;;5088512;28;19913;-70
2023/04/17 10:45:00;;;;;;;;;;;13.70;93.40;;;;;;5100907;28;19920;-70
2023/04/17 10:47:32;;;;;;;;;;;13.80;93.30;;;;;;5110760;28;20366;-70
2023/04/17 10:49:58;;;;;;;;;;;13.90;93.10;;;;;;5109934;28;19908;-70
2023/04/17 10:52:40;;;;;;;;;;;14.10;93.00;;;;;;5102601;28;19912;-70
2023/04/17 10:55:19;;;;;;;;;;;14.10;92.80;;;;;;5110600;28;19912;-70
2023/04/17 10:57:50;;;;;;;;;;;14.30;92.90;;;;;;5110928;28;19919;-70
2023/04/17 11:00:17;;;;;;;;;;;14.40;92.80;;;;;;5110829;28;20590;-70
2023/04/17 11:02:49;;;;;;;;;;;14.50;92.70;;;;;;5110608;28;20023;-70
2023/04/17 11:05:15;;;;;;;;;;;14.50;92.20;;;;;;5111009;28;20360;-70
2023/04/17 11:07:43;;;;;;;;;;;14.60;92.60;;;;;;5110759;28;20494;-70
2023/04/17 11:10:08;;;;;;;;;;;14.60;92.60;;;;;;5110712;28;19918;-70
2023/04/17 11:12:34;;;;;;;;;;;14.60;92.90;;;;;;5110420;28;19911;-70
2023/04/17 11:15:04;;;;;;;;;;;14.60;93.20;;;;;;5109151;28;20364;-70
2023/04/17 11:17:29;;;;;;;;;;;14.60;93.10;;;;;;5110596;28;19947;-70
2023/04/17 11:19:58;;;;;;;;;;;14.60;93.10;;;;;;5110431;28;20020;-70
2023/04/17 11:22:24;;;;;;;;;;;14.60;93.30;;;;;;5109767;27;19912;-70
2023/04/17 11:24:50;;;;;;;;;;;14.60;93.20;;;;;;5110322;28;19912;-71
2023/04/17 11:27:16;;;;;;;;;;;14.70;92.60;;;;;;5110732;28;19908;-71
2023/04/17 11:29:43;;;;;;;;;;;14.80;93.40;;;;;;5110318;28;19920;-70
2023/04/17 11:32:10;;;;;;;;;;;14.90;93.40;;;;;;5110202;27;19911;-70
2023/04/17 11:34:35;;;;;;;;;;;14.90;93.10;;;;;;5110303;28;20002;-71
2023/04/17 11:37:02;;;;;;;;;;;15.00;93.00;;;;;;5110217;28;19983;-71
2023/04/17 11:39:28;;;;;;;;;;;15.10;92.90;;;;;;5108615;28;20155;-70
2023/04/17 11:41:55;;;;;;;;;;;15.10;92.60;;;;;;5108290;28;19955;-70
2023/04/17 11:44:21;;;;;;;;;;;15.10;92.80;;;;;;5108679;28;20463;-70
2023/04/17 11:46:51;;;;;;;;;;;15.20;92.10;;;;;;5109932;28;19908;-70
2023/04/17 11:49:22;;;;;;;;;;;15.20;92.80;;;;;;5108692;28;19919;-71
2023/04/17 11:51:48;;;;;;;;;;;15.20;92.40;;;;;;5105916;28;19912;-71
2023/04/17 11:54:40;;;;;;;;;;;15.30;92.80;;;;;;5105685;28;19912;-71
2023/04/17 11:57:10;;;;;;;;;;;15.30;92.80;;;;;;5105281;28;20264;-71
2023/04/17 11:59:36;;;;;;;;;;;15.40;92.60;;;;;;5109575;28;19916;-71
2023/04/17 12:02:02;;;;;;;;;;;15.40;92.40;;;;;;5109444;28;19984;-71
2023/04/17 12:04:29;;;;;;;;;;;15.40;92.80;;;;;;5109976;28;20353;-71
2023/04/17 12:06:55;;;;;;;;;;;15.40;92.60;;;;;;5108365;28;20607;-71
2023/04/17 12:09:23;;;;;;;;;;;15.50;92.40;;;;;;5109528;28;19911;-71
2023/04/17 12:11:48;;;;;;;;;;;15.50;92.30;;;;;;5109377;28;19919;-71
2023/04/17 12:14:14;;;;;;;;;;;15.50;92.00;;;;;;5109391;28;19908;-70
2023/04/17 12:16:39;;;;;;;;;;;15.50;91.60;;;;;;5107819;28;19912;-70
2023/04/17 12:19:06;;;;;;;;;;;15.60;92.20;;;;;;5109351;28;20439;-70
2023/04/17 12:21:32;;;;;;;;;;;15.60;92.30;;;;;;5109090;28;20435;-70
2023/04/17 12:23:57;;;;;;;;;;;15.60;92.30;;;;;;5108846;28;19907;-71
2023/04/17 12:26:24;;;;;;;;;;;15.60;92.30;;;;;;5108205;28;19987;-71
2023/04/17 12:28:50;;;;;;;;;;;15.60;92.30;;;;;;5108278;28;19912;-71
2023/04/17 12:31:15;;;;;;;;;;;15.70;92.30;;;;;;5109413;28;19912;-71
2023/04/17 12:33:41;;;;;;;;;;;15.80;92.50;;;;;;5109092;28;19919;-70
2023/04/17 12:36:06;;;;;;;;;;;15.90;92.50;;;;;;5109228;27;19908;-71
2023/04/17 12:38:32;;;;;;;;;;;15.90;92.40;;;;;;5109110;28;20123;-71
2023/04/17 12:40:58;;;;;;;;;;;15.90;92.30;;;;;;5107574;28;20392;-71
2023/04/17 12:43:23;;;;;;;;;;;16.00;92.10;;;;;;5108952;28;19911;-71
2023/04/17 12:45:50;;;;;;;;;;;16.00;92.20;;;;;;5108972;28;19947;-70
2023/04/17 12:48:16;;;;;;;;;;;16.00;91.90;;;;;;5107373;28;19912;-70
2023/04/17 12:50:42;;;;;;;;;;;16.00;92.10;;;;;;5109267;28;19907;-70
2023/04/17 12:53:12;;;;;;;;;;;16.10;92.10;;;;;;5100466;28;20318;-71
2023/04/17 12:55:42;;;;;;;;;;;16.20;91.90;;;;;;5106559;28;19991;-71
2023/04/17 12:58:09;;;;;;;;;;;16.20;91.60;;;;;;5109153;28;19972;-71
2023/04/17 13:00:35;;;;;;;;;;;16.20;91.60;;;;;;5107524;28;19919;-70
2023/04/17 13:03:01;;;;;;;;;;;16.20;91.80;;;;;;5108703;28;20387;-71
2023/04/17 13:05:27;;;;;;;;;;;16.20;91.70;;;;;;5109246;28;19988;-71
2023/04/17 13:07:53;;;;;;;;;;;16.30;91.60;;;;;;5108941;28;19912;-70
2023/04/17 13:10:18;;;;;;;;;;;16.40;91.80;;;;;;5108847;28;19972;-70
2023/04/17 13:12:44;;;;;;;;;;;16.40;91.80;;;;;;5108600;28;20026;-70
2023/04/17 13:15:11;;;;;;;;;;;16.40;91.70;;;;;;5108742;28;19912;-70
2023/04/17 13:17:38;;;;;;;;;;;16.40;91.50;;;;;;5108834;28;19943;-70
2023/04/17 13:20:04;;;;;;;;;;;16.40;91.30;;;;;;5108948;28;20680;-71
2023/04/17 13:22:29;;;;;;;;;;;16.40;91.40;;;;;;5108940;28;20373;-70
2023/04/17 13:24:55;;;;;;;;;;;16.40;91.40;;;;;;5108980;28;19912;-70
2023/04/17 13:27:20;;;;;;;;;;;16.40;91.50;;;;;;5108902;28;20527;-70
2023/04/17 13:29:46;;;;;;;;;;;16.40;91.80;;;;;;5106797;28;19912;-71
2023/04/17 13:32:12;;;;;;;;;;;16.40;91.90;;;;;;5108400;28;19908;-71
2023/04/17 13:34:37;;;;;;;;;;;16.40;91.80;;;;;;5108847;28;20319;-71
2023/04/17 13:37:03;;;;;;;;;;;16.40;91.80;;;;;;5108841;28;19919;-71
2023/04/17 13:39:28;;;;;;;;;;;16.50;91.60;;;;;;5108860;28;19922;-70
2023/04/17 13:41:56;;;;;;;;;;;16.50;91.20;;;;;;5108285;28;20445;-71
2023/04/17 13:44:21;;;;;;;;;;;16.60;91.00;;;;;;5108526;28;19912;-71
2023/04/17 13:46:47;;;;;;;;;;;16.60;91.00;;;;;;5107202;28;20026;-70
2023/04/17 13:49:13;;;;;;;;;;;16.70;90.70;;;;;;5108599;28;19914;-70
2023/04/17 13:51:39;;;;;;;;;;;16.70;90.50;;;;;;5105617;28;19916;-70
2023/04/17 13:54:05;;;;;;;;;;;16.70;90.60;;;;;;5102744;28;19965;-70
2023/04/17 13:56:31;;;;;;;;;;;16.70;90.50;;;;;;5108398;28;20360;-71
2023/04/17 13:58:57;;;;;;;;;;;16.70;90.40;;;;;;5108466;28;19915;-71
2023/04/17 14:01:22;;;;;;;;;;;16.70;90.60;;;;;;5107189;28;19911;-70
2023/04/17 14:03:48;;;;;;;;;;;16.70;90.70;;;;;;5108134;28;19919;-70
2023/04/17 14:06:14;;;;;;;;;;;16.60;90.70;;;;;;5108585;28;19922;-70
2023/04/17 14:08:40;;;;;;;;;;;16.60;90.70;;;;;;5111820;28;19920;-70
2023/04/17 14:11:05;;;;;;;;;;;16.60;90.60;;;;;;5112151;28;19927;-70
2023/04/17 14:13:31;;;;;;;;;;;16.60;90.50;;;;;;5111628;28;20276;-69
2023/04/17 14:15:56;;;;;;;;;;;16.70;90.20;;;;;;5112026;28;19970;-70